sensor_id;sensor_type;location;lat;lon;timestamp;pressure;altitude;pressure_sealevel;temperature;humidity
66176;BME280;52977;44.816;20.538;2023-05-29T00:01:32;99535.72;;;18.09;100.00
66176;BME280;52977;44.816;20.538;2023-05-29T00:03:58;99569.47;;;18.29;100.00
66176;BME280;52977;44.816;20.538;2023-05-29T00:06:25;99560.53;;;18.05;100.00
66176;BME280;52977;44.816;20.538;2023-05-29T00:08:51;99570.69;;;17.98;100.00
66176;BME280;52977;44.816;20.538;2023-05-29T00:11:17;99529.09;;;17.53;100.00
66176;BME280;52977;44.816;20.538;2023-05-29T00:13:43;99483.63;;;17.16;100.00
66176;BME280;52977;44.816;20.538;2023-05-29T00:16:09;99565.47;;;17.62;100.00
66176;BME280;52977;44.816;20.538;2023-05-29T00:18:36;99461.13;;;16.87;100.00
66176;BME280;52977;44.816;20.538;2023-05-29T00:21:02;99537.34;;;17.26;100.00
66176;BME280;52977;44.816;20.538;2023-05-29T00:23:28;99543.03;;;17.10;100.00
66176;BME280;52977;44.816;20.538;2023-05-29T00:25:54;99566.16;;;17.29;100.00
66176;BME280;52977;44.816;20.538;2023-05-29T00:28:20;99574.88;;;17.31;100.00
66176;BME280;52977;44.816;20.538;2023-05-29T00:30:47;99498.69;;;16.72;100.00
66176;BME280;52977;44.816;20.538;2023-05-29T00:33:13;99576.69;;;16.96;100.00
66176;BME280;52977;44.816;20.538;2023-05-29T00:35:39;99526.19;;;16.46;100.00
66176;BME280;52977;44.816;20.538;2023-05-29T00:38:05;99565.81;;;16.84;100.00
66176;BME280;52977;44.816;20.538;2023-05-29T00:40:31;99519.06;;;16.45;100.00
66176;BME280;52977;44.816;20.538;2023-05-29T00:42:58;99511.44;;;16.34;100.00
66176;BME280;52977;44.816;20.538;2023-05-29T00:45:24;99518.66;;;16.43;100.00
66176;BME280;52977;44.816;20.538;2023-05-29T00:47:51;99464.53;;;16.08;100.00
66176;BME280;52977;44.816;20.538;2023-05-29T00:50:17;99564.16;;;16.79;100.00
66176;BME280;52977;44.816;20.538;2023-05-29T00:52:44;99564.22;;;16.83;100.00
66176;BME280;52977;44.816;20.538;2023-05-29T00:55:11;99542.41;;;16.74;100.00
66176;BME280;52977;44.816;20.538;2023-05-29T00:57:37;99550.09;;;16.84;100.00
66176;BME280;52977;44.816;20.538;2023-05-29T01:00:07;99568.13;;;17.01;100.00
66176;BME280;52977;44.816;20.538;2023-05-29T01:02:43;99550.22;;;16.91;100.00
66176;BME280;52977;44.816;20.538;2023-05-29T01:05:12;99567.63;;;16.96;100.00
66176;BME280;52977;44.816;20.538;2023-05-29T01:07:38;99574.84;;;17.04;100.00
66176;BME280;52977;44.816;20.538;2023-05-29T01:10:06;99557.50;;;16.80;100.00
66176;BME280;52977;44.816;20.538;2023-05-29T01:18:38;99578.56;;;16.69;100.00
66176;BME280;52977;44.816;20.538;2023-05-29T01:21:16;99535.63;;;16.68;100.00
66176;BME280;52977;44.816;20.538;2023-05-29T01:26:45;99580.16;;;17.16;100.00
66176;BME280;52977;44.816;20.538;2023-05-29T01:29:15;99577.63;;;17.31;100.00
66176;BME280;52977;44.816;20.538;2023-05-29T01:31:42;99579.75;;;17.41;100.00
66176;BME280;52977;44.816;20.538;2023-05-29T01:34:09;99589.78;;;17.53;100.00
66176;BME280;52977;44.816;20.538;2023-05-29T01:36:35;99567.34;;;17.54;100.00
66176;BME280;52977;44.816;20.538;2023-05-29T01:39:02;99581.00;;;17.74;100.00
66176;BME280;52977;44.816;20.538;2023-05-29T01:41:28;99526.16;;;17.42;100.00
66176;BME280;52977;44.816;20.538;2023-05-29T01:43:56;99532.63;;;17.53;100.00
66176;BME280;52977;44.816;20.538;2023-05-29T01:46:23;99527.00;;;17.46;100.00
66176;BME280;52977;44.816;20.538;2023-05-29T01:48:51;99435.88;;;16.58;100.00
66176;BME280;52977;44.816;20.538;2023-05-29T01:51:18;99538.91;;;17.23;100.00
66176;BME280;52977;44.816;20.538;2023-05-29T01:53:45;99561.44;;;17.56;100.00
66176;BME280;52977;44.816;20.538;2023-05-29T01:56:11;99555.97;;;17.59;100.00
66176;BME280;52977;44.816;20.538;2023-05-29T01:58:40;99510.84;;;17.45;100.00
66176;BME280;52977;44.816;20.538;2023-05-29T02:01:07;99476.94;;;17.17;100.00
66176;BME280;52977;44.816;20.538;2023-05-29T02:03:34;99548.81;;;17.85;100.00
66176;BME280;52977;44.816;20.538;2023-05-29T02:06:00;99530.03;;;17.64;100.00
66176;BME280;52977;44.816;20.538;2023-05-29T02:08:27;99561.78;;;17.81;100.00
66176;BME280;52977;44.816;20.538;2023-05-29T02:10:53;99545.53;;;17.76;100.00
66176;BME280;52977;44.816;20.538;2023-05-29T02:13:19;99563.38;;;17.82;100.00
66176;BME280;52977;44.816;20.538;2023-05-29T02:15:47;99564.84;;;17.76;100.00
66176;BME280;52977;44.816;20.538;2023-05-29T02:18:15;99558.97;;;17.77;100.00
66176;BME280;52977;44.816;20.538;2023-05-29T02:20:44;99562.84;;;17.73;100.00
66176;BME280;52977;44.816;20.538;2023-05-29T02:23:16;99541.66;;;17.50;100.00
66176;BME280;52977;44.816;20.538;2023-05-29T02:25:42;99564.34;;;17.67;100.00
66176;BME280;52977;44.816;20.538;2023-05-29T02:28:09;99570.72;;;17.71;100.00
66176;BME280;52977;44.816;20.538;2023-05-29T02:30:36;99564.84;;;17.76;100.00
66176;BME280;52977;44.816;20.538;2023-05-29T02:33:02;99510.75;;;17.37;100.00
66176;BME280;52977;44.816;20.538;2023-05-29T02:35:28;99566.47;;;17.77;100.00
66176;BME280;52977;44.816;20.538;2023-05-29T02:37:56;99556.16;;;17.74;100.00
66176;BME280;52977;44.816;20.538;2023-05-29T02:40:22;99507.22;;;17.40;100.00
66176;BME280;52977;44.816;20.538;2023-05-29T02:42:49;99568.16;;;17.85;100.00
66176;BME280;52977;44.816;20.538;2023-05-29T02:45:17;99555.00;;;17.75;100.00
66176;BME280;52977;44.816;20.538;2023-05-29T02:47:43;99505.34;;;17.48;100.00
66176;BME280;52977;44.816;20.538;2023-05-29T02:50:09;99486.50;;;17.23;100.00
66176;BME280;52977;44.816;20.538;2023-05-29T02:52:36;99555.97;;;17.59;100.00
66176;BME280;52977;44.816;20.538;2023-05-29T02:55:03;99559.34;;;17.46;100.00
66176;BME280;52977;44.816;20.538;2023-05-29T02:57:31;99501.19;;;17.04;100.00
66176;BME280;52977;44.816;20.538;2023-05-29T02:59:58;99567.13;;;17.67;100.00
66176;BME280;52977;44.816;20.538;2023-05-29T03:02:25;99545.56;;;17.49;100.00
66176;BME280;52977;44.816;20.538;2023-05-29T03:04:51;99519.06;;;17.41;100.00
66176;BME280;52977;44.816;20.538;2023-05-29T03:07:18;99508.28;;;17.32;100.00
66176;BME280;52977;44.816;20.538;2023-05-29T03:09:44;99580.53;;;17.68;100.00
66176;BME280;52977;44.816;20.538;2023-05-29T03:12:10;99583.69;;;17.67;100.00
66176;BME280;52977;44.816;20.538;2023-05-29T03:14:37;99587.53;;;17.62;100.00
66176;BME280;52977;44.816;20.538;2023-05-29T03:17:07;99587.16;;;17.64;100.00
66176;BME280;52977;44.816;20.538;2023-05-29T03:19:35;99559.75;;;17.48;100.00
66176;BME280;52977;44.816;20.538;2023-05-29T03:22:01;99536.41;;;17.41;100.00
66176;BME280;52977;44.816;20.538;2023-05-29T03:24:29;99507.44;;;17.28;100.00
66176;BME280;52977;44.816;20.538;2023-05-29T03:26:55;99597.38;;;17.90;100.00
66176;BME280;52977;44.816;20.538;2023-05-29T03:29:22;99593.38;;;17.84;100.00
66176;BME280;52977;44.816;20.538;2023-05-29T03:31:50;99553.94;;;17.56;100.00
66176;BME280;52977;44.816;20.538;2023-05-29T03:34:22;99583.47;;;17.79;100.00
66176;BME280;52977;44.816;20.538;2023-05-29T03:36:56;99556.94;;;17.71;100.00
66176;BME280;52977;44.816;20.538;2023-05-29T03:39:23;99604.25;;;18.00;100.00
66176;BME280;52977;44.816;20.538;2023-05-29T03:41:49;99540.50;;;17.51;100.00
66176;BME280;52977;44.816;20.538;2023-05-29T03:44:15;99546.81;;;17.52;100.00
66176;BME280;52977;44.816;20.538;2023-05-29T03:46:41;99600.06;;;17.83;100.00
66176;BME280;52977;44.816;20.538;2023-05-29T03:49:07;99596.50;;;17.82;100.00
66176;BME280;52977;44.816;20.538;2023-05-29T03:51:35;99599.16;;;17.48;100.00
66176;BME280;52977;44.816;20.538;2023-05-29T03:54:03;99603.41;;;17.15;100.00
66176;BME280;52977;44.816;20.538;2023-05-29T03:56:29;99578.16;;;16.90;100.00
66176;BME280;52977;44.816;20.538;2023-05-29T03:58:55;99559.03;;;16.78;100.00
66176;BME280;52977;44.816;20.538;2023-05-29T04:01:21;99589.47;;;16.85;100.00
66176;BME280;52977;44.816;20.538;2023-05-29T04:03:48;99598.81;;;17.00;100.00
66176;BME280;52977;44.816;20.538;2023-05-29T04:06:15;99608.00;;;17.07;100.00
66176;BME280;52977;44.816;20.538;2023-05-29T04:08:42;99615.41;;;17.27;100.00
66176;BME280;52977;44.816;20.538;2023-05-29T04:11:08;99605.13;;;17.23;100.00
66176;BME280;52977;44.816;20.538;2023-05-29T04:13:34;99583.66;;;17.13;100.00
66176;BME280;52977;44.816;20.538;2023-05-29T04:16:00;99611.91;;;17.30;100.00
66176;BME280;52977;44.816;20.538;2023-05-29T04:18:27;99605.59;;;17.29;100.00
66176;BME280;52977;44.816;20.538;2023-05-29T04:20:53;99569.34;;;17.04;100.00
66176;BME280;52977;44.816;20.538;2023-05-29T04:23:20;99618.59;;;17.05;100.00
66176;BME280;52977;44.816;20.538;2023-05-29T04:25:46;99595.56;;;16.94;100.00
66176;BME280;52977;44.816;20.538;2023-05-29T04:28:17;99575.66;;;16.62;100.00
66176;BME280;52977;44.816;20.538;2023-05-29T04:30:43;99615.66;;;16.95;100.00
66176;BME280;52977;44.816;20.538;2023-05-29T04:33:09;99621.72;;;17.04;100.00
66176;BME280;52977;44.816;20.538;2023-05-29T04:35:42;99486.69;;;16.15;100.00
66176;BME280;52977;44.816;20.538;2023-05-29T04:38:10;99523.72;;;16.40;100.00
66176;BME280;52977;44.816;20.538;2023-05-29T04:40:36;99560.44;;;16.68;100.00
66176;BME280;52977;44.816;20.538;2023-05-29T04:43:03;99592.88;;;16.78;100.00
66176;BME280;52977;44.816;20.538;2023-05-29T04:45:45;99544.44;;;16.54;100.00
66176;BME280;52977;44.816;20.538;2023-05-29T04:48:11;99571.50;;;16.48;100.00
66176;BME280;52977;44.816;20.538;2023-05-29T04:50:38;99616.50;;;16.99;100.00
66176;BME280;52977;44.816;20.538;2023-05-29T04:53:05;99619.94;;;16.92;100.00
66176;BME280;52977;44.816;20.538;2023-05-29T04:55:32;99621.03;;;16.87;100.00
66176;BME280;52977;44.816;20.538;2023-05-29T04:57:58;99595.75;;;16.85;100.00
66176;BME280;52977;44.816;20.538;2023-05-29T05:00:26;99559.00;;;16.54;100.00
66176;BME280;52977;44.816;20.538;2023-05-29T05:02:52;99621.19;;;17.18;100.00
66176;BME280;52977;44.816;20.538;2023-05-29T05:05:19;99555.41;;;16.73;100.00
66176;BME280;52977;44.816;20.538;2023-05-29T05:07:46;99616.66;;;17.33;100.00
66176;BME280;52977;44.816;20.538;2023-05-29T05:10:12;99618.00;;;17.42;100.00
66176;BME280;52977;44.816;20.538;2023-05-29T05:12:38;99639.09;;;17.54;100.00
66176;BME280;52977;44.816;20.538;2023-05-29T05:15:04;99636.53;;;17.69;100.00
66176;BME280;52977;44.816;20.538;2023-05-29T05:17:32;99629.69;;;17.59;100.00
66176;BME280;52977;44.816;20.538;2023-05-29T05:19:59;99593.59;;;17.18;100.00
66176;BME280;52977;44.816;20.538;2023-05-29T05:22:25;99584.66;;;17.01;100.00
66176;BME280;52977;44.816;20.538;2023-05-29T05:24:52;99625.88;;;17.17;100.00
66176;BME280;52977;44.816;20.538;2023-05-29T05:27:19;99641.25;;;17.41;100.00
66176;BME280;52977;44.816;20.538;2023-05-29T05:29:45;99635.31;;;17.39;100.00
66176;BME280;52977;44.816;20.538;2023-05-29T05:32:11;99650.13;;;17.54;100.00
66176;BME280;52977;44.816;20.538;2023-05-29T05:34:37;99642.59;;;17.51;100.00
66176;BME280;52977;44.816;20.538;2023-05-29T05:37:03;99640.25;;;17.53;100.00
66176;BME280;52977;44.816;20.538;2023-05-29T05:39:28;99653.16;;;17.72;100.00
66176;BME280;52977;44.816;20.538;2023-05-29T05:41:54;99648.06;;;17.74;100.00
66176;BME280;52977;44.816;20.538;2023-05-29T05:44:40;99641.47;;;17.83;100.00
66176;BME280;52977;44.816;20.538;2023-05-29T05:47:10;99602.41;;;17.54;100.00
66176;BME280;52977;44.816;20.538;2023-05-29T05:49:36;99639.88;;;17.82;100.00
66176;BME280;52977;44.816;20.538;2023-05-29T05:52:01;99571.19;;;17.50;100.00
66176;BME280;52977;44.816;20.538;2023-05-29T05:54:28;99639.69;;;17.94;100.00
66176;BME280;52977;44.816;20.538;2023-05-29T05:56:54;99614.44;;;17.69;100.00
66176;BME280;52977;44.816;20.538;2023-05-29T05:59:20;99588.38;;;17.66;100.00
66176;BME280;52977;44.816;20.538;2023-05-29T06:01:47;99629.94;;;18.04;100.00
66176;BME280;52977;44.816;20.538;2023-05-29T06:04:13;99641.91;;;18.12;100.00
66176;BME280;52977;44.816;20.538;2023-05-29T06:06:39;99642.75;;;18.19;100.00
66176;BME280;52977;44.816;20.538;2023-05-29T06:09:07;99590.53;;;17.76;100.00
66176;BME280;52977;44.816;20.538;2023-05-29T06:11:33;99628.63;;;17.94;100.00
66176;BME280;52977;44.816;20.538;2023-05-29T06:13:59;99638.66;;;18.06;100.00
66176;BME280;52977;44.816;20.538;2023-05-29T06:16:29;99639.91;;;18.12;100.00
66176;BME280;52977;44.816;20.538;2023-05-29T06:18:56;99594.97;;;17.85;100.00
66176;BME280;52977;44.816;20.538;2023-05-29T06:21:23;99649.47;;;18.18;100.00
66176;BME280;52977;44.816;20.538;2023-05-29T06:23:53;99657.94;;;18.33;100.00
66176;BME280;52977;44.816;20.538;2023-05-29T06:26:20;99647.66;;;18.30;100.00
66176;BME280;52977;44.816;20.538;2023-05-29T06:28:49;99624.03;;;18.36;100.00
66176;BME280;52977;44.816;20.538;2023-05-29T06:31:15;99626.91;;;18.47;100.00
66176;BME280;52977;44.816;20.538;2023-05-29T06:33:42;99662.56;;;18.55;100.00
66176;BME280;52977;44.816;20.538;2023-05-29T06:36:08;99665.28;;;18.52;100.00
66176;BME280;52977;44.816;20.538;2023-05-29T06:38:35;99658.66;;;18.60;100.00
66176;BME280;52977;44.816;20.538;2023-05-29T06:41:04;99674.50;;;18.63;100.00
66176;BME280;52977;44.816;20.538;2023-05-29T06:43:33;99677.97;;;18.56;100.00
66176;BME280;52977;44.816;20.538;2023-05-29T06:46:02;99676.38;;;18.55;100.00
66176;BME280;52977;44.816;20.538;2023-05-29T06:48:32;99694.47;;;18.49;100.00
66176;BME280;52977;44.816;20.538;2023-05-29T06:51:00;99629.78;;;17.93;100.00
66176;BME280;52977;44.816;20.538;2023-05-29T06:53:45;99628.84;;;18.08;100.00
66176;BME280;52977;44.816;20.538;2023-05-29T06:56:12;99678.66;;;18.50;100.00
66176;BME280;52977;44.816;20.538;2023-05-29T06:58:39;99653.03;;;18.53;100.00
66176;BME280;52977;44.816;20.538;2023-05-29T07:01:06;99684.34;;;18.60;100.00
66176;BME280;52977;44.816;20.538;2023-05-29T07:03:34;99634.25;;;18.32;100.00
66176;BME280;52977;44.816;20.538;2023-05-29T07:06:03;99649.88;;;18.51;100.00
66176;BME280;52977;44.816;20.538;2023-05-29T07:08:31;99637.13;;;18.42;100.00
66176;BME280;52977;44.816;20.538;2023-05-29T07:10:58;99624.94;;;18.47;100.00
66176;BME280;52977;44.816;20.538;2023-05-29T07:13:25;99693.22;;;18.77;100.00
66176;BME280;52977;44.816;20.538;2023-05-29T07:15:54;99642.78;;;18.53;100.00
66176;BME280;52977;44.816;20.538;2023-05-29T07:18:28;99648.28;;;18.50;100.00
66176;BME280;52977;44.816;20.538;2023-05-29T07:20:57;99649.44;;;18.49;100.00
66176;BME280;52977;44.816;20.538;2023-05-29T07:23:25;99701.53;;;18.81;100.00
66176;BME280;52977;44.816;20.538;2023-05-29T07:25:52;99711.16;;;18.90;100.00
66176;BME280;52977;44.816;20.538;2023-05-29T07:28:19;99682.09;;;18.73;100.00
66176;BME280;52977;44.816;20.538;2023-05-29T07:30:45;99708.50;;;19.01;100.00
66176;BME280;52977;44.816;20.538;2023-05-29T07:33:12;99652.75;;;18.61;100.00
66176;BME280;52977;44.816;20.538;2023-05-29T07:35:38;99712.81;;;18.99;100.00
66176;BME280;52977;44.816;20.538;2023-05-29T07:38:05;99717.56;;;18.98;100.00
66176;BME280;52977;44.816;20.538;2023-05-29T07:40:32;99682.31;;;18.91;100.00
66176;BME280;52977;44.816;20.538;2023-05-29T07:42:58;99693.59;;;19.13;100.00
66176;BME280;52977;44.816;20.538;2023-05-29T07:45:36;99702.50;;;19.37;100.00
66176;BME280;52977;44.816;20.538;2023-05-29T07:48:03;99707.34;;;19.47;100.00
66176;BME280;52977;44.816;20.538;2023-05-29T07:50:30;99689.19;;;19.50;100.00
66176;BME280;52977;44.816;20.538;2023-05-29T07:52:56;99689.63;;;19.55;100.00
66176;BME280;52977;44.816;20.538;2023-05-29T07:55:23;99713.44;;;19.67;100.00
66176;BME280;52977;44.816;20.538;2023-05-29T07:57:49;99677.31;;;19.45;100.00
66176;BME280;52977;44.816;20.538;2023-05-29T08:00:16;99705.13;;;19.63;100.00
66176;BME280;52977;44.816;20.538;2023-05-29T08:02:45;99674.78;;;19.29;100.00
66176;BME280;52977;44.816;20.538;2023-05-29T08:05:31;99705.03;;;19.56;100.00
66176;BME280;52977;44.816;20.538;2023-05-29T08:08:00;99681.63;;;19.43;100.00
66176;BME280;52977;44.816;20.538;2023-05-29T08:10:26;99711.41;;;19.57;100.00
66176;BME280;52977;44.816;20.538;2023-05-29T08:12:53;99688.63;;;19.29;100.00
66176;BME280;52977;44.816;20.538;2023-05-29T08:15:19;99697.91;;;19.52;100.00
66176;BME280;52977;44.816;20.538;2023-05-29T08:17:46;99687.16;;;19.43;100.00
66176;BME280;52977;44.816;20.538;2023-05-29T08:20:12;99702.28;;;19.56;100.00
66176;BME280;52977;44.816;20.538;2023-05-29T08:22:38;99666.50;;;19.33;100.00
66176;BME280;52977;44.816;20.538;2023-05-29T08:25:05;99709.91;;;19.67;100.00
66176;BME280;52977;44.816;20.538;2023-05-29T08:27:31;99690.41;;;19.52;100.00
66176;BME280;52977;44.816;20.538;2023-05-29T08:29:57;99707.50;;;19.65;100.00
66176;BME280;52977;44.816;20.538;2023-05-29T08:32:24;99684.44;;;19.50;100.00
66176;BME280;52977;44.816;20.538;2023-05-29T08:34:50;99713.50;;;19.74;100.00
66176;BME280;52977;44.816;20.538;2023-05-29T08:37:17;99707.63;;;19.79;100.00
66176;BME280;52977;44.816;20.538;2023-05-29T08:39:43;99710.84;;;19.82;100.00
66176;BME280;52977;44.816;20.538;2023-05-29T08:42:16;99727.84;;;19.84;100.00
66176;BME280;52977;44.816;20.538;2023-05-29T08:44:47;99714.78;;;19.84;100.00
66176;BME280;52977;44.816;20.538;2023-05-29T08:47:33;99648.06;;;19.48;100.00
66176;BME280;52977;44.816;20.538;2023-05-29T08:50:00;99711.31;;;19.94;100.00
66176;BME280;52977;44.816;20.538;2023-05-29T08:52:29;99613.16;;;19.33;100.00
66176;BME280;52977;44.816;20.538;2023-05-29T08:54:56;99688.28;;;19.87;97.77
66176;BME280;52977;44.816;20.538;2023-05-29T08:57:24;99713.78;;;20.10;99.58
66176;BME280;52977;44.816;20.538;2023-05-29T08:59:51;99675.69;;;19.96;100.00
66176;BME280;52977;44.816;20.538;2023-05-29T09:02:18;99677.75;;;20.10;99.28
66176;BME280;52977;44.816;20.538;2023-05-29T09:04:45;99679.34;;;20.11;100.00
66176;BME280;52977;44.816;20.538;2023-05-29T09:07:17;99707.44;;;20.10;99.17
66176;BME280;52977;44.816;20.538;2023-05-29T09:09:48;99646.66;;;19.76;99.13
66176;BME280;52977;44.816;20.538;2023-05-29T09:12:15;99645.97;;;19.86;95.82
66176;BME280;52977;44.816;20.538;2023-05-29T09:14:43;99703.94;;;20.20;96.60
66176;BME280;52977;44.816;20.538;2023-05-29T09:17:12;99688.53;;;20.26;97.86
66176;BME280;52977;44.816;20.538;2023-05-29T09:19:39;99683.38;;;20.28;94.49
66176;BME280;52977;44.816;20.538;2023-05-29T09:24:35;99681.91;;;20.49;95.68
66176;BME280;52977;44.816;20.538;2023-05-29T09:27:09;99681.53;;;20.54;94.08
66176;BME280;52977;44.816;20.538;2023-05-29T09:29:41;99673.22;;;20.58;94.22
66176;BME280;52977;44.816;20.538;2023-05-29T09:32:08;99678.44;;;20.74;93.51
66176;BME280;52977;44.816;20.538;2023-05-29T09:34:35;99658.22;;;20.70;90.64
66176;BME280;52977;44.816;20.538;2023-05-29T09:37:06;99632.00;;;20.49;89.00
66176;BME280;52977;44.816;20.538;2023-05-29T09:42:07;99628.41;;;20.45;87.27
66176;BME280;52977;44.816;20.538;2023-05-29T09:44:33;99616.53;;;20.41;90.11
66176;BME280;52977;44.816;20.538;2023-05-29T09:47:00;99660.22;;;20.80;84.38
66176;BME280;52977;44.816;20.538;2023-05-29T09:49:26;99648.34;;;20.76;84.94
66176;BME280;52977;44.816;20.538;2023-05-29T09:52:13;99561.44;;;20.28;81.49
66176;BME280;52977;44.816;20.538;2023-05-29T09:54:43;99667.00;;;20.93;80.13
66176;BME280;52977;44.816;20.538;2023-05-29T09:57:16;99616.19;;;20.64;82.28
66176;BME280;52977;44.816;20.538;2023-05-29T09:59:43;99669.00;;;21.04;80.48
66176;BME280;52977;44.816;20.538;2023-05-29T10:02:11;99624.97;;;20.80;78.98
66176;BME280;52977;44.816;20.538;2023-05-29T10:04:40;99659.91;;;21.17;79.42
66176;BME280;52977;44.816;20.538;2023-05-29T10:07:26;99659.09;;;21.31;78.85
66176;BME280;52977;44.816;20.538;2023-05-29T10:09:59;99653.16;;;21.33;79.45
66176;BME280;52977;44.816;20.538;2023-05-29T10:12:28;99614.69;;;21.17;79.22
66176;BME280;52977;44.816;20.538;2023-05-29T10:14:57;99630.16;;;21.40;78.55
66176;BME280;52977;44.816;20.538;2023-05-29T10:17:28;99642.44;;;21.49;77.78
66176;BME280;52977;44.816;20.538;2023-05-29T10:20:01;99647.59;;;21.51;78.60
66176;BME280;52977;44.816;20.538;2023-05-29T10:22:27;99650.81;;;21.60;78.37
66176;BME280;52977;44.816;20.538;2023-05-29T10:24:56;99619.03;;;21.47;78.25
66176;BME280;52977;44.816;20.538;2023-05-29T10:27:22;99607.16;;;21.36;76.87
66176;BME280;52977;44.816;20.538;2023-05-29T10:30:12;99648.78;;;21.72;77.69
66176;BME280;52977;44.816;20.538;2023-05-29T10:36:07;99643.25;;;21.54;77.86
66176;BME280;52977;44.816;20.538;2023-05-29T10:38:36;99609.53;;;21.33;78.46
66176;BME280;52977;44.816;20.538;2023-05-29T10:43:56;99634.16;;;21.53;79.06
66176;BME280;52977;44.816;20.538;2023-05-29T10:49:17;99618.25;;;21.68;77.81
66176;BME280;52977;44.816;20.538;2023-05-29T10:51:43;99586.09;;;21.67;76.82
66176;BME280;52977;44.816;20.538;2023-05-29T10:54:10;99550.44;;;21.55;77.17
66176;BME280;52977;44.816;20.538;2023-05-29T10:56:36;99571.44;;;21.70;76.43
66176;BME280;52977;44.816;20.538;2023-05-29T10:59:02;99612.19;;;22.09;75.49
66176;BME280;52977;44.816;20.538;2023-05-29T11:01:30;99607.38;;;22.17;77.25
66176;BME280;52977;44.816;20.538;2023-05-29T11:06:43;99564.13;;;22.12;75.44
66176;BME280;52977;44.816;20.538;2023-05-29T11:12:11;99603.50;;;21.93;79.00
66176;BME280;52977;44.816;20.538;2023-05-29T11:14:54;99581.78;;;21.55;78.07
66176;BME280;52977;44.816;20.538;2023-05-29T11:20:07;99581.78;;;21.37;80.71
66176;BME280;52977;44.816;20.538;2023-05-29T11:25:26;99586.06;;;21.78;77.63
66176;BME280;52977;44.816;20.538;2023-05-29T11:27:52;99591.50;;;22.10;76.10
66176;BME280;52977;44.816;20.538;2023-05-29T11:30:18;99517.81;;;21.84;75.45
66176;BME280;52977;44.816;20.538;2023-05-29T11:32:45;99580.28;;;22.43;76.34
66176;BME280;52977;44.816;20.538;2023-05-29T11:35:12;99492.72;;;21.95;76.58
66176;BME280;52977;44.816;20.538;2023-05-29T11:37:40;99522.31;;;22.38;77.27
66176;BME280;52977;44.816;20.538;2023-05-29T11:40:12;99571.66;;;22.86;74.24
66176;BME280;52977;44.816;20.538;2023-05-29T11:42:43;99540.75;;;22.73;73.11
66176;BME280;52977;44.816;20.538;2023-05-29T11:45:15;99571.53;;;23.00;72.83
66176;BME280;52977;44.816;20.538;2023-05-29T11:47:55;99568.34;;;23.02;70.30
66176;BME280;52977;44.816;20.538;2023-05-29T11:50:23;99571.06;;;23.13;70.94
66176;BME280;52977;44.816;20.538;2023-05-29T11:52:49;99573.34;;;23.25;71.56
66176;BME280;52977;44.816;20.538;2023-05-29T11:55:21;99575.63;;;23.37;73.23
66176;BME280;52977;44.816;20.538;2023-05-29T11:57:48;99560.97;;;23.30;69.44
66176;BME280;52977;44.816;20.538;2023-05-29T12:00:15;99572.38;;;23.43;67.34
66176;BME280;52977;44.816;20.538;2023-05-29T12:02:42;99569.06;;;23.55;64.75
66176;BME280;52977;44.816;20.538;2023-05-29T12:05:09;99531.09;;;23.30;65.84
66176;BME280;52977;44.816;20.538;2023-05-29T12:07:36;99567.41;;;23.61;65.50
66176;BME280;52977;44.816;20.538;2023-05-29T12:10:13;99584.75;;;23.76;66.11
66176;BME280;52977;44.816;20.538;2023-05-29T12:12:40;99550.78;;;23.09;68.47
66176;BME280;52977;44.816;20.538;2023-05-29T12:15:07;99540.81;;;22.62;67.08
66176;BME280;52977;44.816;20.538;2023-05-29T12:17:35;99552.78;;;21.63;67.60
66176;BME280;52977;44.816;20.538;2023-05-29T12:20:03;99569.47;;;21.49;68.68
66176;BME280;52977;44.816;20.538;2023-05-29T12:22:36;99545.25;;;21.49;68.29
66176;BME280;52977;44.816;20.538;2023-05-29T12:25:07;99531.34;;;21.67;67.71
66176;BME280;52977;44.816;20.538;2023-05-29T12:27:35;99576.75;;;22.24;68.22
66176;BME280;52977;44.816;20.538;2023-05-29T12:30:11;99549.81;;;22.10;67.77
66176;BME280;52977;44.816;20.538;2023-05-29T12:32:44;99546.75;;;21.90;67.32
66176;BME280;52977;44.816;20.538;2023-05-29T12:35:11;99582.03;;;22.00;67.63
66176;BME280;52977;44.816;20.538;2023-05-29T12:40:20;99543.59;;;21.84;67.32
66176;BME280;52977;44.816;20.538;2023-05-29T12:42:57;99539.63;;;21.82;67.62
66176;BME280;52977;44.816;20.538;2023-05-29T12:45:31;99531.25;;;21.93;67.24
66176;BME280;52977;44.816;20.538;2023-05-29T12:47:59;99561.84;;;21.82;68.16
66176;BME280;52977;44.816;20.538;2023-05-29T12:53:03;99553.63;;;21.53;70.71
66176;BME280;52977;44.816;20.538;2023-05-29T12:55:32;99555.16;;;21.43;70.31
66176;BME280;52977;44.816;20.538;2023-05-29T12:57:59;99561.16;;;21.34;70.26
66176;BME280;52977;44.816;20.538;2023-05-29T13:00:25;99563.94;;;20.98;70.83
66176;BME280;52977;44.816;20.538;2023-05-29T13:02:51;99569.91;;;21.00;70.95
66176;BME280;52977;44.816;20.538;2023-05-29T13:05:18;99571.47;;;20.94;70.59
66176;BME280;52977;44.816;20.538;2023-05-29T13:07:51;99552.44;;;20.68;70.65
66176;BME280;52977;44.816;20.538;2023-05-29T13:10:18;99559.16;;;20.63;73.00
66176;BME280;52977;44.816;20.538;2023-05-29T13:12:45;99564.28;;;20.64;72.61
66176;BME280;52977;44.816;20.538;2023-05-29T13:15:13;99563.06;;;20.44;73.64
66176;BME280;52977;44.816;20.538;2023-05-29T13:17:39;99507.97;;;20.17;75.54
66176;BME280;52977;44.816;20.538;2023-05-29T13:20:11;99550.41;;;20.43;75.21
66176;BME280;52977;44.816;20.538;2023-05-29T13:22:41;99556.34;;;20.48;75.15
66176;BME280;52977;44.816;20.538;2023-05-29T13:25:08;99565.84;;;20.40;76.22
66176;BME280;52977;44.816;20.538;2023-05-29T13:27:41;99579.69;;;20.44;75.95